Time;durP1;ratioP1;P1;durP2;ratioP2;P2;SDS_P1;SDS_P2;PMS_P1;PMS_P2;Temp;Humidity;BMP_temperature;BMP_pressure;BME280_temperature;BME280_humidity;BME280_pressure;Samples;Min_cycle;Max_cycle;Signal;HPM_P1;HPM_P2
2023/05/24 00:01:26;;;;;;;7.20;2.17;;;10.20;99.90;;;;;;4907297;29;20493;-34
2023/05/24 00:03:52;;;;;;;10.75;1.65;;;10.20;99.90;;;;;;4909640;29;20195;-34
2023/05/24 00:06:20;;;;;;;10.27;3.00;;;10.10;99.90;;;;;;4910644;29;20498;-34
2023/05/24 00:08:46;;;;;;;9.73;2.70;;;10.10;99.90;;;;;;4915958;29;20502;-35
2023/05/24 00:11:12;;;;;;;23.75;4.32;;;10.10;99.90;;;;;;4906809;29;20057;-35
2023/05/24 00:13:38;;;;;;;10.57;3.17;;;10.10;99.90;;;;;;4910230;29;20213;-35
2023/05/24 00:16:03;;;;;;;10.70;2.10;;;10.00;99.90;;;;;;4912192;29;20063;-35
2023/05/24 00:18:32;;;;;;;13.75;2.20;;;10.00;99.90;;;;;;4910476;29;20043;-35
2023/05/24 00:20:58;;;;;;;9.45;2.08;;;10.00;99.90;;;;;;4913488;29;20153;-35
2023/05/24 00:23:24;;;;;;;12.98;1.90;;;9.90;99.90;;;;;;4903393;29;20056;-35
2023/05/24 00:25:53;;;;;;;10.30;1.90;;;9.90;99.90;;;;;;4909957;29;20379;-35
2023/05/24 00:28:18;;;;;;;14.27;1.75;;;9.90;99.90;;;;;;4906637;29;20075;-35
2023/05/24 00:30:44;;;;;;;10.23;2.33;;;9.90;99.90;;;;;;4890428;29;20068;-35
2023/05/24 00:33:10;;;;;;;11.27;2.42;;;9.80;99.90;;;;;;4895483;29;20517;-35
2023/05/24 00:35:36;;;;;;;7.80;2.63;;;9.80;99.90;;;;;;4905137;29;20052;-35
2023/05/24 00:38:01;;;;;;;8.02;1.83;;;9.80;99.90;;;;;;4905880;29;20044;-35
2023/05/24 00:40:27;;;;;;;14.05;2.30;;;9.70;99.90;;;;;;4905121;29;20801;-35
2023/05/24 00:42:53;;;;;;;11.07;2.22;;;9.70;99.90;;;;;;4916445;29;20634;-35
2023/05/24 00:45:18;;;;;;;11.30;2.60;;;9.70;99.90;;;;;;4908094;29;20115;-35
2023/05/24 00:47:45;;;;;;;12.50;2.22;;;9.70;99.90;;;;;;4905026;29;20129;-35
2023/05/24 00:50:13;;;;;;;8.50;2.05;;;9.70;99.90;;;;;;4908234;29;20055;-35
2023/05/24 00:52:42;;;;;;;11.98;2.90;;;9.70;99.90;;;;;;4907439;29;20078;-35
2023/05/24 00:55:08;;;;;;;12.30;2.22;;;9.70;99.90;;;;;;4903285;29;20071;-35
2023/05/24 00:57:37;;;;;;;14.18;3.65;;;9.70;99.90;;;;;;4904535;29;20135;-35
2023/05/24 01:00:05;;;;;;;13.18;2.20;;;9.80;99.90;;;;;;4908357;29;20558;-35
2023/05/24 01:02:31;;;;;;;9.10;2.10;;;9.80;99.90;;;;;;4900320;29;20056;-35
2023/05/24 01:04:58;;;;;;;11.13;2.40;;;9.80;99.90;;;;;;4907760;29;20410;-35
2023/05/24 01:07:46;;;;;;;12.45;2.30;;;9.80;99.90;;;;;;4906762;29;20055;-35
2023/05/24 01:10:23;;;;;;;11.68;1.92;;;9.80;99.90;;;;;;4903436;29;20052;-34
2023/05/24 01:13:02;;;;;;;12.63;2.15;;;9.80;99.90;;;;;;4904542;29;20060;-35
2023/05/24 01:15:51;;;;;;;11.70;2.25;;;9.80;99.90;;;;;;4909724;29;20513;-35
2023/05/24 01:18:24;;;;;;;8.05;2.25;;;9.80;99.90;;;;;;4907972;29;20088;-35
2023/05/24 01:21:01;;;;;;;8.82;2.13;;;9.80;99.90;;;;;;4909517;29;20506;-35
2023/05/24 01:23:43;;;;;;;9.93;1.73;;;9.80;99.90;;;;;;4903933;29;20048;-35
2023/05/24 01:26:18;;;;;;;15.15;2.78;;;9.80;99.90;;;;;;4907114;29;20059;-35
2023/05/24 01:28:45;;;;;;;13.57;2.55;;;9.80;99.90;;;;;;4908847;29;20052;-35
2023/05/24 01:31:13;;;;;;;11.95;2.42;;;9.80;99.90;;;;;;4906657;29;20490;-34
2023/05/24 01:33:43;;;;;;;9.90;2.17;;;9.80;99.90;;;;;;4910380;29;20123;-34
2023/05/24 01:36:09;;;;;;;14.65;3.55;;;9.80;99.90;;;;;;4909330;29;20059;-34
2023/05/24 01:38:35;;;;;;;12.20;1.92;;;9.80;99.90;;;;;;4910624;29;20059;-34
2023/05/24 01:41:25;;;;;;;12.50;2.45;;;9.80;99.90;;;;;;4910044;29;20438;-34
2023/05/24 01:43:59;;;;;;;7.35;2.17;;;9.90;99.90;;;;;;4911311;29;20082;-35
2023/05/24 01:46:37;;;;;;;13.80;2.97;;;9.90;99.90;;;;;;4911786;29;20131;-35
2023/05/24 01:49:09;;;;;;;12.02;1.90;;;9.90;99.90;;;;;;4909282;29;20106;-35
2023/05/24 01:51:58;;;;;;;12.15;2.53;;;10.00;99.90;;;;;;4909483;29;20513;-34
2023/05/24 01:54:27;;;;;;;13.65;2.30;;;10.00;99.90;;;;;;4910132;29;20086;-34
2023/05/24 01:56:54;;;;;;;15.40;3.05;;;10.00;99.90;;;;;;4910875;29;20063;-35
2023/05/24 01:59:23;;;;;;;12.88;2.20;;;10.00;99.90;;;;;;4918213;29;20060;-35
2023/05/24 02:01:49;;;;;;;9.25;2.10;;;10.10;99.90;;;;;;4909003;29;20199;-35
2023/05/24 02:04:16;;;;;;;13.30;2.38;;;10.10;99.90;;;;;;4908936;29;20048;-35
2023/05/24 02:06:41;;;;;;;13.00;2.10;;;10.20;99.90;;;;;;4909402;29;20619;-35
2023/05/24 02:09:07;;;;;;;13.57;2.10;;;10.20;99.90;;;;;;4910208;29;20131;-35
2023/05/24 02:11:33;;;;;;;11.00;3.10;;;10.10;99.90;;;;;;4909381;29;20055;-34
2023/05/24 02:13:58;;;;;;;13.73;2.58;;;10.10;99.90;;;;;;4907317;29;20060;-34
2023/05/24 02:16:25;;;;;;;14.80;3.55;;;10.00;99.90;;;;;;4911139;29;20130;-35
2023/05/24 02:18:51;;;;;;;8.02;1.98;;;9.90;99.90;;;;;;4909139;29;20633;-35
2023/05/24 02:21:17;;;;;;;10.82;2.10;;;9.90;99.90;;;;;;4907824;29;20525;-35
2023/05/24 02:23:43;;;;;;;9.60;2.10;;;9.80;99.90;;;;;;4901080;29;20106;-35
2023/05/24 02:26:13;;;;;;;11.63;1.85;;;9.70;99.90;;;;;;4911035;29;20505;-35
2023/05/24 02:28:39;;;;;;;12.68;2.30;;;9.70;99.90;;;;;;4911658;29;20048;-35
2023/05/24 02:31:05;;;;;;;14.05;2.28;;;9.60;99.90;;;;;;4910943;29;20661;-35
2023/05/24 02:33:30;;;;;;;11.57;1.90;;;9.60;99.90;;;;;;4908883;29;20060;-35
2023/05/24 02:35:56;;;;;;;14.23;2.22;;;9.50;99.90;;;;;;4913444;29;20044;-35
2023/05/24 02:38:22;;;;;;;11.90;2.20;;;9.50;99.90;;;;;;4907916;29;20137;-35
2023/05/24 02:40:47;;;;;;;13.48;2.90;;;9.40;99.90;;;;;;4911273;29;20059;-36
2023/05/24 02:43:13;;;;;;;13.45;2.50;;;9.40;99.90;;;;;;4909648;29;20096;-35
2023/05/24 02:45:39;;;;;;;9.18;2.58;;;9.40;99.90;;;;;;4907684;29;20091;-35
2023/05/24 02:48:05;;;;;;;10.23;2.03;;;9.30;99.90;;;;;;4909026;29;20107;-35
2023/05/24 02:50:30;;;;;;;12.10;2.00;;;9.30;99.90;;;;;;4908972;29;20052;-35
2023/05/24 02:52:56;;;;;;;6.57;1.83;;;9.30;99.90;;;;;;4907442;29;20087;-35
2023/05/24 02:55:22;;;;;;;8.55;1.55;;;9.30;99.90;;;;;;4911358;29;20450;-35
2023/05/24 02:57:47;;;;;;;9.80;1.63;;;9.30;99.90;;;;;;4908385;29;20565;-35
2023/05/24 03:00:14;;;;;;;11.40;2.63;;;9.20;99.90;;;;;;4908630;29;20135;-35
2023/05/24 03:02:39;;;;;;;13.70;2.70;;;9.20;99.90;;;;;;4904997;29;20418;-35
2023/05/24 03:05:06;;;;;;;12.07;1.73;;;9.20;99.90;;;;;;4906858;29;20055;-35
2023/05/24 03:07:32;;;;;;;9.40;2.15;;;9.20;99.90;;;;;;4908168;29;20052;-35
2023/05/24 03:09:58;;;;;;;13.30;1.98;;;9.10;99.90;;;;;;4907442;29;20075;-35
2023/05/24 03:12:24;;;;;;;9.77;2.08;;;9.10;99.90;;;;;;4906031;29;20051;-35
2023/05/24 03:14:49;;;;;;;9.90;2.00;;;9.10;99.90;;;;;;4910914;29;20135;-35
2023/05/24 03:17:15;;;;;;;12.70;2.00;;;9.00;99.90;;;;;;4904879;29;20080;-36
2023/05/24 03:19:40;;;;;;;9.82;2.03;;;9.00;99.90;;;;;;4910696;29;20073;-35
2023/05/24 03:22:06;;;;;;;7.47;1.92;;;8.90;99.90;;;;;;4904244;29;20055;-35
2023/05/24 03:24:33;;;;;;;8.80;2.17;;;8.90;99.90;;;;;;4907502;29;20066;-35
2023/05/24 03:26:58;;;;;;;7.85;1.50;;;8.90;99.90;;;;;;4907858;29;20103;-35
2023/05/24 03:29:24;;;;;;;8.68;1.60;;;8.90;99.90;;;;;;4904526;29;20573;-35
2023/05/24 03:31:50;;;;;;;10.27;2.45;;;8.90;99.90;;;;;;4903222;29;20052;-36
2023/05/24 03:34:15;;;;;;;9.80;2.03;;;8.90;99.90;;;;;;4907578;29;20140;-35
2023/05/24 03:36:42;;;;;;;9.32;1.80;;;8.90;99.90;;;;;;4905727;29;20078;-35
2023/05/24 03:39:08;;;;;;;12.38;1.80;;;8.90;99.90;;;;;;4909084;29;20107;-34
2023/05/24 03:41:33;;;;;;;6.28;1.60;;;9.00;99.90;;;;;;4907644;29;20071;-35
2023/05/24 03:43:59;;;;;;;13.75;2.20;;;9.00;99.90;;;;;;4908095;29;20052;-35
2023/05/24 03:46:25;;;;;;;8.80;2.53;;;9.00;99.90;;;;;;4909097;29;20048;-35
2023/05/24 03:48:51;;;;;;;9.00;1.77;;;9.00;99.90;;;;;;4911854;29;20052;-35
2023/05/24 03:51:16;;;;;;;14.32;2.30;;;9.00;99.90;;;;;;4908752;29;20473;-35
2023/05/24 03:53:42;;;;;;;10.48;1.70;;;9.00;99.90;;;;;;4909845;29;20064;-35
2023/05/24 03:56:08;;;;;;;11.52;2.17;;;9.00;99.90;;;;;;4905623;29;20063;-35
2023/05/24 03:58:33;;;;;;;8.45;1.55;;;9.00;99.90;;;;;;4910389;29;20079;-35
2023/05/24 04:00:59;;;;;;;11.30;1.88;;;8.90;99.90;;;;;;4908578;29;20060;-35
2023/05/24 04:03:25;;;;;;;9.05;1.98;;;8.90;99.90;;;;;;4906023;29;20048;-35
2023/05/24 04:05:53;;;;;;;13.80;2.05;;;8.90;99.90;;;;;;4905704;29;20422;-35
2023/05/24 04:08:19;;;;;;;7.97;1.95;;;8.90;99.90;;;;;;4905530;29;20048;-35
2023/05/24 04:10:45;;;;;;;10.05;1.80;;;8.90;99.90;;;;;;4907735;29;20082;-35
2023/05/24 04:13:11;;;;;;;15.35;2.33;;;8.90;99.90;;;;;;4908127;29;20556;-36
2023/05/24 04:15:36;;;;;;;6.20;1.48;;;8.90;99.90;;;;;;4910661;29;22384;-35
2023/05/24 04:18:02;;;;;;;11.93;1.70;;;8.90;99.90;;;;;;4909237;29;20085;-35
2023/05/24 04:20:28;;;;;;;8.35;2.17;;;8.90;99.90;;;;;;4908574;29;20131;-35
2023/05/24 04:22:54;;;;;;;11.30;2.42;;;8.90;99.90;;;;;;4900926;29;21353;-35
2023/05/24 04:25:21;;;;;;;9.68;2.00;;;9.00;99.90;;;;;;4913794;29;20048;-35
2023/05/24 04:27:49;;;;;;;10.75;1.63;;;9.00;99.90;;;;;;4907203;29;20071;-35
2023/05/24 04:30:16;;;;;;;10.52;1.50;;;9.00;99.90;;;;;;4908990;29;20052;-36
2023/05/24 04:32:43;;;;;;;10.98;2.25;;;9.00;99.90;;;;;;4901613;29;20055;-35
2023/05/24 04:35:12;;;;;;;9.10;2.10;;;9.00;99.90;;;;;;4909745;29;20044;-35
2023/05/24 04:37:39;;;;;;;8.88;1.95;;;9.00;99.90;;;;;;4904679;29;20055;-35
2023/05/24 04:40:06;;;;;;;12.35;1.95;;;9.10;99.90;;;;;;4904336;29;20742;-35
2023/05/24 04:42:33;;;;;;;6.60;1.35;;;9.10;99.90;;;;;;4874933;29;20387;-35
2023/05/24 04:44:59;;;;;;;8.40;2.40;;;9.10;99.90;;;;;;4909095;29;20134;-36
2023/05/24 04:47:25;;;;;;;8.65;2.10;;;9.20;99.90;;;;;;4908641;29;20099;-35
2023/05/24 04:49:50;;;;;;;10.48;1.85;;;9.20;99.90;;;;;;4902426;29;20048;-36
2023/05/24 04:52:17;;;;;;;12.07;2.10;;;9.20;99.90;;;;;;4900682;29;20139;-35
2023/05/24 04:54:42;;;;;;;10.23;1.75;;;9.20;99.90;;;;;;4906871;29;20556;-36
2023/05/24 04:57:08;;;;;;;11.27;1.52;;;9.30;99.90;;;;;;4904150;29;20052;-36
2023/05/24 04:59:34;;;;;;;9.57;2.95;;;9.30;99.90;;;;;;4909872;29;20114;-35
2023/05/24 05:02:00;;;;;;;7.68;1.35;;;9.30;99.90;;;;;;4906085;29;20426;-35
2023/05/24 05:04:25;;;;;;;16.92;1.92;;;9.40;99.90;;;;;;4907589;29;20060;-36
2023/05/24 05:06:51;;;;;;;10.38;1.70;;;9.50;99.90;;;;;;4909665;29;20064;-35
2023/05/24 05:09:17;;;;;;;9.75;1.50;;;9.60;99.90;;;;;;4911745;29;20056;-35
2023/05/24 05:11:45;;;;;;;12.55;1.65;;;9.60;99.90;;;;;;4910060;29;20064;-36
2023/05/24 05:14:11;;;;;;;8.88;1.83;;;9.70;99.90;;;;;;4908372;29;20055;-35
2023/05/24 05:16:37;;;;;;;10.98;1.55;;;9.80;99.90;;;;;;4906307;29;20080;-36
2023/05/24 05:19:03;;;;;;;17.10;1.83;;;9.80;99.90;;;;;;4910841;29;20058;-36
2023/05/24 05:21:31;;;;;;;10.02;1.10;;;9.90;99.90;;;;;;4907601;29;20525;-36
2023/05/24 05:24:01;;;;;;;11.23;2.13;;;10.00;99.90;;;;;;4910703;29;20490;-36
2023/05/24 05:26:27;;;;;;;11.43;1.75;;;10.00;99.90;;;;;;4912139;29;20119;-35
2023/05/24 05:28:53;;;;;;;15.38;1.85;;;10.10;99.90;;;;;;4914187;29;20052;-35
2023/05/24 05:31:19;;;;;;;7.00;1.52;;;10.20;99.90;;;;;;4912241;29;20051;-35
2023/05/24 05:33:45;;;;;;;12.55;2.10;;;10.30;99.90;;;;;;4906521;29;20668;-35
2023/05/24 05:36:11;;;;;;;9.82;1.42;;;10.40;99.90;;;;;;4912171;29;20055;-35
2023/05/24 05:38:36;;;;;;;8.25;2.00;;;10.40;99.90;;;;;;4900674;29;20486;-35
2023/05/24 05:41:02;;;;;;;12.57;3.08;;;10.50;99.90;;;;;;4908593;29;20051;-35
2023/05/24 05:43:28;;;;;;;12.38;2.08;;;10.50;99.90;;;;;;4898429;29;21330;-35
2023/05/24 05:45:55;;;;;;;10.35;1.73;;;10.50;99.90;;;;;;4902076;29;20116;-35
2023/05/24 05:48:20;;;;;;;11.90;2.10;;;10.50;99.90;;;;;;4903838;29;20595;-35
2023/05/24 05:50:46;;;;;;;8.70;1.60;;;10.50;99.90;;;;;;4901169;29;20052;-35
2023/05/24 05:53:12;;;;;;;11.77;2.83;;;10.60;99.90;;;;;;4904097;29;20059;-34
2023/05/24 05:55:37;;;;;;;14.52;1.95;;;10.60;99.90;;;;;;4899329;29;20056;-34
2023/05/24 05:58:03;;;;;;;8.07;1.40;;;10.70;99.90;;;;;;4900209;29;20396;-34
2023/05/24 06:00:28;;;;;;;9.48;1.20;;;10.70;99.90;;;;;;4904154;29;20048;-36
2023/05/24 06:02:54;;;;;;;12.52;1.90;;;10.80;99.90;;;;;;4902580;29;20474;-34
2023/05/24 06:05:20;;;;;;;9.38;1.60;;;10.90;99.90;;;;;;4905015;29;20608;-35
2023/05/24 06:07:46;;;;;;;7.55;2.35;;;10.90;99.90;;;;;;4904061;29;20131;-34
2023/05/24 06:10:12;;;;;;;6.57;1.50;;;11.00;99.90;;;;;;4903759;29;20096;-34
2023/05/24 06:12:39;;;;;;;7.55;1.33;;;11.00;99.90;;;;;;4909274;29;20695;-34
2023/05/24 06:15:06;;;;;;;10.88;1.70;;;11.10;99.90;;;;;;4907260;29;20071;-34
2023/05/24 06:17:33;;;;;;;8.68;1.52;;;11.10;99.90;;;;;;4912147;29;20064;-34
2023/05/24 06:19:59;;;;;;;15.60;2.65;;;11.20;99.90;;;;;;4911714;29;20056;-34
2023/05/24 06:22:26;;;;;;;13.50;1.83;;;11.20;99.90;;;;;;4908871;29;20059;-34
2023/05/24 06:24:52;;;;;;;13.27;1.90;;;11.20;99.90;;;;;;4912848;29;20071;-36
2023/05/24 06:27:18;;;;;;;5.80;1.33;;;11.20;99.90;;;;;;4903952;29;20048;-34
2023/05/24 06:29:44;;;;;;;13.18;2.50;;;11.20;99.90;;;;;;4904211;29;20414;-34
2023/05/24 06:32:10;;;;;;;12.70;2.05;;;11.30;99.90;;;;;;4911606;29;20191;-35
2023/05/24 06:34:36;;;;;;;10.27;2.30;;;11.30;99.90;;;;;;4906634;29;20143;-35
2023/05/24 06:37:01;;;;;;;10.65;2.13;;;11.40;99.90;;;;;;4897844;29;20521;-35
2023/05/24 06:39:27;;;;;;;11.40;2.10;;;11.50;99.90;;;;;;4909636;29;20554;-35
2023/05/24 06:41:53;;;;;;;9.70;1.55;;;11.60;99.90;;;;;;4915291;29;20062;-35
2023/05/24 06:44:18;;;;;;;10.38;1.75;;;11.60;99.90;;;;;;4909593;29;20188;-35
2023/05/24 06:46:44;;;;;;;12.02;1.90;;;11.70;99.90;;;;;;4911613;29;20422;-35
2023/05/24 06:49:11;;;;;;;9.98;2.35;;;11.80;99.90;;;;;;4908859;29;20102;-35
2023/05/24 06:51:37;;;;;;;9.98;1.70;;;11.80;99.90;;;;;;4913951;29;20147;-35
2023/05/24 06:54:03;;;;;;;12.80;2.03;;;11.90;99.90;;;;;;4917250;29;20155;-35
2023/05/24 06:56:28;;;;;;;12.68;1.65;;;12.00;99.90;;;;;;4907676;29;20060;-35
2023/05/24 06:58:55;;;;;;;10.40;2.15;;;12.00;99.90;;;;;;4913714;29;20056;-35
2023/05/24 07:01:21;;;;;;;14.25;2.30;;;12.10;99.90;;;;;;4916784;29;20083;-35
2023/05/24 07:03:47;;;;;;;10.38;1.77;;;12.20;99.90;;;;;;4903398;29;20044;-38
2023/05/24 07:06:14;;;;;;;14.38;2.03;;;12.30;99.90;;;;;;4911654;29;20414;-38
2023/05/24 07:08:41;;;;;;;12.02;1.52;;;12.40;99.90;;;;;;4911304;29;20056;-38
2023/05/24 07:11:07;;;;;;;10.25;3.00;;;12.40;99.90;;;;;;4911148;29;20059;-38
2023/05/24 07:13:32;;;;;;;8.88;1.83;;;12.60;99.90;;;;;;4908325;29;20503;-38
2023/05/24 07:15:58;;;;;;;9.70;1.90;;;12.60;99.90;;;;;;4899380;29;20060;-38
2023/05/24 07:18:24;;;;;;;9.60;1.80;;;12.60;99.90;;;;;;4909613;29;20453;-38
2023/05/24 07:20:50;;;;;;;10.90;2.03;;;12.70;99.90;;;;;;4908608;29;20518;-38
2023/05/24 07:23:16;;;;;;;14.57;2.15;;;12.70;99.90;;;;;;4914959;29;20056;-38
2023/05/24 07:25:41;;;;;;;9.10;1.40;;;12.80;99.90;;;;;;4907391;29;20146;-38
2023/05/24 07:28:07;;;;;;;10.07;1.70;;;12.80;99.90;;;;;;4915041;29;20059;-38
2023/05/24 07:30:33;;;;;;;11.30;1.75;;;12.90;99.90;;;;;;4923213;29;20048;-39
2023/05/24 07:32:59;;;;;;;9.95;1.70;;;13.00;99.90;;;;;;4903899;29;20407;-39
2023/05/24 07:35:27;;;;;;;11.45;1.88;;;13.10;99.90;;;;;;4912791;29;20055;-38
2023/05/24 07:37:53;;;;;;;7.35;1.40;;;13.10;99.90;;;;;;4910789;29;20060;-38
2023/05/24 07:40:18;;;;;;;8.75;2.65;;;13.20;99.90;;;;;;4913420;29;20048;-39
2023/05/24 07:42:46;;;;;;;10.77;1.98;;;13.30;99.90;;;;;;4913751;29;20052;-37
2023/05/24 07:45:12;;;;;;;6.40;1.75;;;13.40;99.90;;;;;;4902971;29;20163;-38
2023/05/24 07:47:37;;;;;;;8.10;1.50;;;13.40;99.90;;;;;;4904252;29;20079;-36
2023/05/24 07:50:04;;;;;;;9.30;1.60;;;13.50;99.90;;;;;;4904886;29;20044;-36
2023/05/24 07:52:30;;;;;;;11.85;1.88;;;13.50;99.90;;;;;;4901080;29;20127;-36
2023/05/24 07:54:55;;;;;;;7.78;2.13;;;13.60;99.90;;;;;;4903365;29;20251;-36
2023/05/24 07:57:21;;;;;;;10.55;3.08;;;13.70;99.90;;;;;;4905826;29;20140;-36
2023/05/24 07:59:47;;;;;;;11.43;2.03;;;13.70;99.90;;;;;;4904435;29;20084;-36
2023/05/24 08:02:14;;;;;;;12.20;1.70;;;13.80;99.90;;;;;;4901265;29;20112;-36
2023/05/24 08:04:40;;;;;;;7.55;1.27;;;13.80;99.90;;;;;;4901876;29;20471;-36
2023/05/24 08:07:06;;;;;;;8.75;1.63;;;13.70;99.90;;;;;;4897688;29;20136;-36
2023/05/24 08:09:35;;;;;;;9.80;1.30;;;13.60;99.90;;;;;;4903651;29;20059;-36
2023/05/24 08:12:07;;;;;;;12.40;1.52;;;13.70;99.90;;;;;;4903356;29;20613;-36
2023/05/24 08:14:32;;;;;;;8.43;1.50;;;13.70;99.90;;;;;;4906940;29;20565;-36
2023/05/24 08:16:59;;;;;;;10.65;1.67;;;13.90;99.90;;;;;;4904957;29;20056;-36
2023/05/24 08:19:26;;;;;;;6.70;1.35;;;14.00;99.90;;;;;;4900332;29;20158;-36
2023/05/24 08:21:54;;;;;;;9.48;1.48;;;14.10;99.90;;;;;;4898877;29;20048;-36
2023/05/24 08:24:20;;;;;;;7.65;1.23;;;14.10;99.90;;;;;;4903251;29;20052;-36
2023/05/24 08:26:45;;;;;;;8.73;1.45;;;14.10;99.90;;;;;;4898158;29;20055;-36
2023/05/24 08:29:11;;;;;;;8.85;2.55;;;14.10;99.90;;;;;;4912799;29;20084;-37
2023/05/24 08:31:37;;;;;;;9.93;1.55;;;14.30;99.90;;;;;;4905628;29;20462;-36
2023/05/24 08:34:03;;;;;;;6.63;1.60;;;14.40;99.90;;;;;;4903229;29;20051;-36
2023/05/24 08:36:29;;;;;;;6.32;1.10;;;14.50;99.90;;;;;;4903070;29;20110;-36
2023/05/24 08:38:55;;;;;;;12.38;1.80;;;14.60;99.90;;;;;;4906872;29;20055;-36
2023/05/24 08:41:21;;;;;;;7.70;1.50;;;14.70;99.90;;;;;;4906345;29;20044;-36
2023/05/24 08:43:47;;;;;;;5.82;1.48;;;14.80;99.90;;;;;;4908959;29;20478;-36
2023/05/24 08:46:16;;;;;;;5.18;1.35;;;15.00;99.90;;;;;;4912652;29;20063;-36
2023/05/24 08:48:48;;;;;;;9.60;2.10;;;15.10;99.90;;;;;;4902700;29;20044;-36
2023/05/24 08:51:15;;;;;;;10.85;1.48;;;15.10;99.90;;;;;;4909694;29;20052;-36
2023/05/24 08:53:47;;;;;;;10.20;1.80;;;15.20;99.90;;;;;;4914747;29;20093;-37
2023/05/24 08:56:16;;;;;;;12.53;1.87;;;15.40;99.90;;;;;;4910959;29;20546;-36
2023/05/24 08:58:42;;;;;;;8.68;1.70;;;15.60;99.90;;;;;;4911367;29;20047;-35
2023/05/24 09:01:09;;;;;;;9.68;1.52;;;15.60;99.90;;;;;;4905397;29;20451;-35
2023/05/24 09:03:36;;;;;;;8.18;1.38;;;15.50;99.90;;;;;;4915398;29;20048;-36
2023/05/24 09:06:02;;;;;;;12.02;1.60;;;15.40;99.90;;;;;;4888732;29;20066;-36
2023/05/24 09:08:29;;;;;;;7.53;1.45;;;15.30;99.90;;;;;;4907547;29;20196;-36
2023/05/24 09:10:55;;;;;;;7.50;1.45;;;15.30;99.90;;;;;;4911642;29;20051;-36
2023/05/24 09:13:23;;;;;;;5.50;1.15;;;15.30;99.90;;;;;;4919952;29;20537;-36
2023/05/24 09:15:49;;;;;;;9.65;1.80;;;15.30;99.90;;;;;;4907776;29;20059;-36
2023/05/24 09:18:15;;;;;;;6.68;1.60;;;15.20;99.90;;;;;;4910022;29;20049;-36
2023/05/24 09:20:40;;;;;;;10.00;1.50;;;15.10;99.90;;;;;;4916122;29;20059;-36
2023/05/24 09:23:07;;;;;;;6.75;1.48;;;15.10;99.90;;;;;;4909570;29;20059;-35
2023/05/24 09:25:33;;;;;;;5.63;1.30;;;15.20;99.90;;;;;;4912994;29;20158;-35
2023/05/24 09:28:05;;;;;;;5.65;1.00;;;15.30;99.90;;;;;;4908109;29;20535;-36
2023/05/24 09:30:30;;;;;;;7.95;1.80;;;15.50;99.90;;;;;;4918267;29;20139;-36
2023/05/24 09:32:59;;;;;;;6.53;1.52;;;15.70;99.90;;;;;;4913200;29;20154;-36
2023/05/24 09:35:26;;;;;;;6.03;1.38;;;15.70;99.90;;;;;;4910275;29;20044;-36
2023/05/24 09:37:58;;;;;;;6.50;1.60;;;15.80;99.90;;;;;;4914039;29;20044;-36
2023/05/24 09:40:25;;;;;;;6.38;1.52;;;15.90;99.90;;;;;;4909742;29;20056;-35
2023/05/24 09:43:08;;;;;;;6.55;1.08;;;16.10;99.90;;;;;;4912266;29;20059;-36
2023/05/24 09:45:47;;;;;;;8.02;1.27;;;16.30;99.90;;;;;;4910366;29;20060;-36
2023/05/24 09:48:16;;;;;;;7.40;1.35;;;16.30;99.90;;;;;;4918631;29;20099;-36
2023/05/24 09:50:44;;;;;;;5.75;1.65;;;16.20;99.90;;;;;;4914013;29;20048;-36
2023/05/24 09:53:11;;;;;;;7.20;1.33;;;16.10;99.90;;;;;;4912701;29;20059;-36
2023/05/24 09:55:36;;;;;;;8.38;1.00;;;16.10;99.90;;;;;;4906908;29;20056;-36
2023/05/24 09:58:07;;;;;;;9.98;1.50;;;16.40;99.90;;;;;;4917094;29;20059;-35
2023/05/24 10:00:35;;;;;;;6.60;1.70;;;16.80;99.90;;;;;;4890774;29;20583;-36
2023/05/24 10:03:05;;;;;;;5.20;1.23;;;16.90;99.90;;;;;;4909628;29;20446;-35
2023/05/24 10:05:31;;;;;;;6.95;1.40;;;17.00;99.90;;;;;;4910315;29;20040;-35
2023/05/24 10:07:57;;;;;;;3.38;1.02;;;16.90;99.90;;;;;;4909720;29;20055;-36
2023/05/24 10:10:27;;;;;;;8.02;1.38;;;17.10;99.90;;;;;;4914747;29;20188;-36
2023/05/24 10:12:55;;;;;;;6.80;1.55;;;17.30;99.90;;;;;;4910282;29;20499;-36
2023/05/24 10:15:20;;;;;;;5.72;1.40;;;17.50;99.90;;;;;;4913909;29;20549;-36
2023/05/24 10:17:46;;;;;;;4.35;1.35;;;17.50;99.90;;;;;;4906168;29;20142;-36
2023/05/24 10:20:12;;;;;;;7.55;2.00;;;17.40;99.90;;;;;;4916473;29;20135;-36
2023/05/24 10:22:46;;;;;;;5.78;1.52;;;17.20;99.90;;;;;;4907401;29;20505;-36
2023/05/24 10:25:24;;;;;;;6.25;1.40;;;17.00;99.90;;;;;;4916029;29;20135;-36
2023/05/24 10:27:54;;;;;;;6.93;1.33;;;16.80;99.90;;;;;;4915495;29;20052;-36
2023/05/24 10:30:28;;;;;;;6.50;1.40;;;16.70;99.90;;;;;;4905140;29;20051;-36
2023/05/24 10:32:56;;;;;;;6.45;2.13;;;16.70;99.90;;;;;;4904757;29;20071;-36
2023/05/24 10:35:23;;;;;;;8.00;1.60;;;16.70;99.90;;;;;;4903755;29;20387;-36
2023/05/24 10:37:48;;;;;;;5.18;1.52;;;16.70;99.90;;;;;;4912834;29;20094;-36
2023/05/24 10:40:25;;;;;;;7.85;1.42;;;16.80;99.90;;;;;;4912778;29;20075;-36
2023/05/24 10:42:53;;;;;;;8.90;2.20;;;16.90;99.90;;;;;;4910376;29;20060;-36
2023/05/24 10:45:34;;;;;;;8.05;2.03;;;17.00;99.90;;;;;;4913925;29;20047;-36
2023/05/24 10:48:12;;;;;;;6.43;1.25;;;17.00;99.90;;;;;;4910710;29;20052;-36
2023/05/24 10:50:38;;;;;;;6.40;1.52;;;17.10;99.90;;;;;;4906506;29;20048;-37
2023/05/24 10:53:13;;;;;;;7.90;1.30;;;17.10;99.90;;;;;;4905483;29;20052;-36
2023/05/24 10:55:58;;;;;;;7.28;1.67;;;17.20;99.90;;;;;;4910773;29;20139;-36
2023/05/24 10:58:34;;;;;;;7.32;1.05;;;17.30;99.90;;;;;;4910733;29;20558;-36
2023/05/24 11:01:00;;;;;;;6.88;1.30;;;17.40;99.90;;;;;;4910949;29;20147;-36
2023/05/24 11:03:32;;;;;;;6.95;1.77;;;17.20;99.90;;;;;;4918646;29;20055;-36
2023/05/24 11:05:58;;;;;;;8.07;1.65;;;17.10;99.90;;;;;;4908026;29;20064;-36
2023/05/24 11:08:32;;;;;;;5.63;1.70;;;17.20;99.90;;;;;;4913287;29;20060;-36
2023/05/24 11:11:09;;;;;;;8.57;1.65;;;17.50;99.90;;;;;;4903174;29;20495;-36
2023/05/24 11:13:38;;;;;;;8.02;1.80;;;17.60;99.90;;;;;;4913107;29;20490;-36
2023/05/24 11:16:05;;;;;;;7.07;2.03;;;17.80;99.90;;;;;;4907335;29;20059;-36
2023/05/24 11:18:32;;;;;;;7.00;1.38;;;18.00;99.90;;;;;;4905391;29;20071;-36
2023/05/24 11:21:02;;;;;;;6.35;1.50;;;18.10;99.90;;;;;;4907264;29;20473;-36
2023/05/24 11:23:29;;;;;;;10.50;1.30;;;18.00;99.90;;;;;;4910967;29;20056;-35
2023/05/24 11:25:56;;;;;;;8.07;1.73;;;18.10;99.90;;;;;;4911247;29;20040;-36
2023/05/24 11:28:22;;;;;;;8.70;1.65;;;18.10;99.90;;;;;;4908862;29;20045;-36
2023/05/24 11:30:49;;;;;;;6.18;2.13;;;17.90;99.90;;;;;;4906338;29;20052;-36
2023/05/24 11:33:22;;;;;;;5.80;1.50;;;17.80;99.90;;;;;;4911097;29;20063;-36
2023/05/24 11:35:51;;;;;;;10.38;1.58;;;17.80;99.90;;;;;;4908103;29;20499;-36
2023/05/24 11:38:17;;;;;;;4.90;1.80;;;17.70;99.90;;;;;;4914716;29;20565;-36
2023/05/24 11:40:45;;;;;;;5.35;1.48;;;17.60;99.90;;;;;;4909146;29;20048;-36
2023/05/24 11:43:16;;;;;;;11.25;1.88;;;17.60;99.90;;;;;;4903333;29;20048;-36
2023/05/24 11:45:44;;;;;;;10.23;2.13;;;17.50;99.90;;;;;;4914469;29;20490;-36
2023/05/24 11:48:11;;;;;;;4.95;1.35;;;17.50;99.90;;;;;;4894183;29;20491;-36
2023/05/24 11:50:44;;;;;;;5.50;1.38;;;17.50;99.90;;;;;;4912406;29;20126;-36
2023/05/24 11:53:14;;;;;;;6.10;1.52;;;17.60;99.90;;;;;;4905814;29;20495;-36
2023/05/24 11:55:40;;;;;;;7.28;1.70;;;17.90;99.90;;;;;;4907079;29;20112;-36
2023/05/24 11:58:18;;;;;;;5.72;1.40;;;18.20;99.90;;;;;;4909737;29;20064;-36
2023/05/24 12:00:44;;;;;;;4.40;1.15;;;18.20;99.90;;;;;;4907737;29;20524;-36
2023/05/24 12:03:09;;;;;;;5.35;1.50;;;18.30;99.90;;;;;;4908780;29;20501;-36
2023/05/24 12:05:36;;;;;;;6.32;1.80;;;18.30;99.90;;;;;;4908430;29;20051;-36
2023/05/24 12:08:04;;;;;;;9.45;1.55;;;18.10;99.90;;;;;;4912546;29;20052;-36
2023/05/24 12:10:35;;;;;;;7.70;1.90;;;17.90;99.90;;;;;;4908983;29;20131;-36
2023/05/24 12:13:03;;;;;;;4.78;1.38;;;17.70;99.90;;;;;;4906833;29;20071;-36
2023/05/24 12:15:29;;;;;;;10.95;2.08;;;17.50;99.90;;;;;;4900370;29;20062;-36
2023/05/24 12:17:56;;;;;;;6.50;1.33;;;17.30;99.90;;;;;;4905371;29;20131;-36
2023/05/24 12:20:23;;;;;;;5.95;1.42;;;17.40;99.90;;;;;;4905385;29;20048;-36
2023/05/24 12:22:53;;;;;;;5.88;1.33;;;17.70;99.90;;;;;;4904914;29;20070;-36
2023/05/24 12:25:20;;;;;;;4.82;1.50;;;18.00;99.90;;;;;;4901240;29;20062;-36
2023/05/24 12:27:51;;;;;;;4.05;1.05;;;18.10;99.90;;;;;;4908019;29;20044;-36
2023/05/24 12:30:22;;;;;;;4.88;1.02;;;18.00;99.90;;;;;;4905710;29;20589;-36
2023/05/24 12:32:48;;;;;;;3.92;0.95;;;17.70;99.90;;;;;;4904470;29;20047;-36
2023/05/24 12:35:16;;;;;;;8.10;1.63;;;17.40;99.90;;;;;;4902607;29;20199;-36
2023/05/24 12:37:42;;;;;;;2.78;0.75;;;17.30;99.90;;;;;;4901731;29;20490;-36
2023/05/24 12:40:22;;;;;;;2.22;1.10;;;17.10;99.90;;;;;;4897638;29;20143;-36
2023/05/24 12:42:53;;;;;;;5.28;1.30;;;17.20;99.90;;;;;;4902972;29;20063;-36
2023/05/24 12:45:24;;;;;;;5.40;1.08;;;17.40;99.90;;;;;;4905593;29;20108;-35
2023/05/24 12:47:51;;;;;;;7.38;0.90;;;17.40;99.90;;;;;;4900307;29;20056;-36